Latest Weather Observations for Garden Island

IDW60801

Issued at 8:33 pm WST Friday 15 November 2019 (issued every 10 minutes, with the page automatically refreshed every 10 minutes)

About weather observations | Map of weather stations | Latest weather observations for WA | Other Formats
Station Details ID: 009256 Name: GARDEN ISLAND HSF Lat: -32.24 Lon: 115.68 Height: 6.0 m
Data from the previous 72 hours. | See also: Recent months at Garden Island
Date/Time
WST
Temp
°C
App
Temp
°C
Dew
Point
°C
Rel
Hum
%
Delta-T
°C
Wind Press
QNH
hPa
Press
MSL
hPa
Rain since
9am
mm
Dir  Spd
km/h
Gust
km/h
Spd
kts
Gust
kts
15/08:30pm 22.0 21.6 19.0 83 1.9 SSW 19 20 10 11 1012.8 1012.8 0.0
15/08:00pm 22.2 21.8 19.0 82 2.0 SSW 19 20 10 11 1012.6 1012.6 0.0
15/07:30pm 22.2 20.8 18.8 81 2.1 SSW 24 28 13 15 1012.5 1012.5 0.0
15/07:00pm 22.2 20.6 18.4 79 2.4 SSW 24 30 13 16 1012.3 1012.3 0.0
15/06:30pm 22.7 19.6 18.3 76 2.8 SSW 32 37 17 20 1011.9 1011.9 0.0
15/06:00pm 23.0 20.6 18.3 75 3.0 SSW 28 32 15 17 1011.7 1011.7 0.0
15/05:30pm 23.0 20.5 18.1 74 3.1 SSW 28 32 15 17 1011.6 1011.6 0.0
15/05:00pm 23.2 20.8 18.3 74 3.1 SSW 28 33 15 18 1011.7 1011.7 0.0
15/04:30pm 23.4 21.0 18.3 73 3.2 SSW 28 32 15 17 1011.9 1011.9 0.0
15/04:00pm 23.7 20.6 18.4 72 3.3 SSW 32 39 17 21 1011.9 1011.9 0.0
15/03:30pm 23.7 20.9 18.1 71 3.5 SSW 30 35 16 19 1012.1 1012.1 0.0
15/03:00pm 24.5 24.0 18.7 70 3.7 SSW 19 22 10 12 1012.3 1012.3 0.0
15/02:30pm 25.3 25.5 18.5 66 4.3 SW 15 19 8 10 1012.6 1012.6 0.0
15/02:00pm 26.1 26.4 18.8 64 4.7 SW 15 20 8 11 1012.8 1012.8 0.0
15/01:30pm 27.9 27.0 16.8 50 6.9 W 17 22 9 12 1013.1 1013.1 0.0
15/01:00pm 28.9 27.3 15.1 43 8.4 W 17 20 9 11 1013.2 1013.2 0.0
15/12:35pm 29.4 27.7 13.6 38 9.4 NNW 15 26 8 14 1013.3 1013.3 0.0
15/12:30pm 34.8 31.8 7.8 19 15.1 NNE 13 17 7 9 1013.2 1013.2 0.0
15/12:00pm 35.0 32.0 10.8 23 14.2 E 17 22 9 12 1012.8 1012.8 0.0
15/11:30am 34.0 30.4 10.6 24 13.6 ESE 20 30 11 16 1012.6 1012.6 0.0
15/11:00am 31.9 28.3 10.6 27 12.3 E 20 28 11 15 1012.9 1012.9 0.0
15/10:30am 31.4 28.0 11.2 29 11.7 E 20 28 11 15 1013.6 1013.6 0.0
15/10:00am 29.7 26.6 10.3 30 11.0 ESE 17 20 9 11 1014.0 1014.0 0.0
15/09:30am 27.0 24.1 12.3 40 8.5 SE 19 22 10 12 1014.6 1014.6 0.0
15/09:00am 26.1 24.2 14.2 48 7.1 SE 17 19 9 10 1015.3 1015.3 0.0
15/08:30am 24.2 22.1 13.7 52 6.1 SSE 17 20 9 11 1015.4 1015.4 0.0
15/08:00am 23.4 21.6 13.3 53 5.8 SE 15 20 8 11 1015.6 1015.6 0.0
15/07:30am 22.7 19.9 11.4 49 6.3 ESE 17 22 9 12 1015.5 1015.5 0.0
15/07:00am 21.6 18.3 11.0 51 5.8 SE 19 22 10 12 1015.6 1015.6 0.0
15/06:30am 20.9 17.5 10.7 52 5.6 ESE 19 26 10 14 1015.5 1015.5 0.0
15/06:00am 20.4 17.0 10.5 53 5.4 ESE 19 24 10 13 1015.2 1015.2 0.0
15/05:30am 20.1 17.1 10.8 55 5.1 SE 17 20 9 11 1015.2 1015.2 0.0
15/05:00am 20.0 17.9 11.0 56 4.9 ESE 13 17 7 9 1014.9 1014.9 0.0
15/04:30am 20.3 17.5 10.1 52 5.5 ESE 15 20 8 11 1014.7 1014.7 0.0
15/04:00am 20.8 17.4 10.6 52 5.6 ESE 19 24 10 13 1014.8 1014.8 0.0
15/03:30am 21.0 18.0 10.8 52 5.6 ESE 17 24 9 13 1014.4 1014.4 0.0
15/03:00am 21.1 19.4 12.3 57 4.9 ESE 13 19 7 10 1014.5 1014.5 0.0
15/02:30am 21.9 19.0 12.2 54 5.5 E 19 28 10 15 1014.3 1014.3 0.0
15/02:00am 22.1 20.5 14.0 60 4.7 E 15 24 8 13 1014.3 1014.3 0.0
15/01:30am 22.6 20.7 14.2 59 4.9 ESE 17 20 9 11 1014.2 1014.2 0.0
15/01:00am 23.3 21.0 14.0 56 5.4 ESE 19 26 10 14 1014.2 1014.2 0.0
15/12:30am 23.9 21.6 14.6 56 5.5 ESE 20 30 11 16 1014.1 1014.1 0.0
15/12:00am 22.7 21.9 16.0 66 4.0 SE 15 20 8 11 1014.0 1014.0 0.0
 
Date/Time
WST
Temp
°C
App
Temp
°C
Dew
Point
°C
Rel
Hum
%
Delta-T
°C
Wind Press
QNH
hPa
Press
MSL
hPa
Rain since
9am
mm
Dir  Spd
km/h
Gust
km/h
Spd
kts
Gust
kts
14/11:30pm 21.9 22.5 17.7 77 2.6 SE 11 13 6 7 1013.9 1013.9 0.0
14/11:00pm 22.2 21.7 18.6 80 2.3 S 19 20 10 11 1013.8 1013.8 0.0
14/10:30pm 22.5 22.0 19.1 81 2.2 S 20 22 11 12 1014.0 1014.0 0.0
14/10:00pm 21.7 20.1 19.3 86 1.5 S 26 30 14 16 1013.6 1013.6 0.0
14/09:30pm 21.6 18.8 19.0 85 1.6 S 32 37 17 20 1013.7 1013.7 0.0
14/09:00pm 21.7 19.2 18.9 84 1.8 S 30 33 16 18 1013.7 1013.7 0.0
14/08:30pm 22.0 19.5 18.8 82 2.0 S 30 33 16 18 1013.4 1013.4 0.0
14/08:00pm 22.1 19.8 18.5 80 2.3 S 28 32 15 17 1013.3 1013.3 0.0
14/07:30pm 22.4 19.3 18.4 78 2.5 S 32 35 17 19 1013.1 1013.1 0.0
14/07:00pm 22.5 19.1 18.1 76 2.7 SSW 33 39 18 21 1012.8 1012.8 0.0
14/06:30pm 22.7 19.2 18.0 75 2.9 SSW 33 39 18 21 1012.6 1012.6 0.0
14/06:00pm 23.2 19.3 17.9 72 3.3 SSW 35 41 19 22 1012.4 1012.4 0.0
14/05:30pm 23.2 19.3 17.9 72 3.3 SSW 35 39 19 21 1012.4 1012.4 0.0
14/05:00pm 23.6 19.4 18.0 71 3.5 SSW 37 43 20 23 1012.4 1012.4 0.0
14/04:30pm 23.6 19.7 17.8 70 3.6 SSW 35 43 19 23 1012.5 1012.5 0.0
14/04:00pm 23.8 19.8 17.5 68 3.9 SSW 35 39 19 21 1012.8 1012.8 0.0
14/03:30pm 23.7 19.7 17.7 69 3.7 SSW 35 39 19 21 1013.0 1013.0 0.0
14/03:00pm 23.9 20.6 17.9 69 3.8 SSW 32 35 17 19 1013.5 1013.5 0.0
14/02:30pm 24.1 21.3 18.1 69 3.8 SSW 30 33 16 18 1014.0 1014.0 0.0
14/02:00pm 24.2 20.8 17.7 67 4.1 SSW 32 35 17 19 1014.4 1014.4 0.0
14/01:30pm 23.8 21.3 18.0 70 3.6 SSW 28 32 15 17 1014.9 1014.9 0.0
14/01:00pm 23.7 21.5 18.6 73 3.2 SSW 28 32 15 17 1015.1 1015.1 0.0
14/12:30pm 23.1 21.8 19.1 78 2.5 SSW 24 30 13 16 1015.3 1015.3 0.0
14/12:00pm 23.2 22.1 18.7 76 2.8 SSW 22 26 12 14 1015.7 1015.7 0.0
14/11:30am 23.6 23.0 18.5 73 3.2 SSW 19 22 10 12 1015.8 1015.8 0.0
14/11:00am 24.8 24.8 19.0 70 3.7 SSW 17 19 9 10 1015.9 1015.9 0.0
14/10:30am 25.0 26.0 18.7 68 4.0 SSW 11 15 6 8 1016.1 1016.1 0.0
14/10:00am 25.7 27.0 17.6 61 5.1 SSW 7 11 4 6 1016.2 1016.2 0.0
14/09:39am 26.4 25.8 14.5 48 7.1 E 11 15 6 8 1016.3 1016.3 0.0
14/09:30am 31.5 28.9 7.9 23 13.0 ENE 11 15 6 8 1016.3 1016.3 0.0
14/09:29am 31.2 28.4 7.0 22 13.1 NE 11 15 6 8 1016.3 1016.3 0.0
14/09:00am 26.2 27.4 17.3 58 5.6 SE 7 13 4 7 1016.5 1016.5 0.0
14/08:30am 24.7 25.4 16.2 59 5.2 ESE 7 11 4 6 1016.8 1016.8 0.0
14/08:00am 27.0 26.2 13.0 42 8.2 E 9 13 5 7 1016.8 1016.8 0.0
14/07:30am 22.5 23.1 15.8 66 4.0 SE 7 9 4 5 1016.9 1016.9 0.0
14/07:00am 22.9 22.6 14.5 59 4.9 SE 9 13 5 7 1016.8 1016.8 0.0
14/06:30am 21.3 20.9 16.3 73 3.0 SSE 13 15 7 8 1016.7 1016.7 0.0
14/06:00am 20.8 20.7 16.0 74 2.9 S 11 13 6 7 1016.5 1016.5 0.0
14/05:30am 20.5 20.8 16.1 76 2.6 S 9 11 5 6 1016.2 1016.2 0.0
14/05:00am 20.5 20.3 15.7 74 2.9 SSE 11 11 6 6 1015.9 1015.9 0.0
14/04:30am 20.0 19.8 14.6 71 3.1 SSE 9 11 5 6 1015.6 1015.6 0.0
14/04:00am 20.1 19.8 14.5 70 3.3 SSE 9 9 5 5 1015.6 1015.6 0.0
14/03:30am 20.7 20.9 15.7 73 3.0 SSE 9 9 5 5 1015.5 1015.5 0.0
14/03:00am 21.1 20.5 15.6 71 3.3 SSE 13 15 7 8 1015.5 1015.5 0.0
14/02:30am 21.0 20.2 16.0 73 3.0 SSE 15 19 8 10 1015.5 1015.5 0.0
14/02:00am 20.9 21.3 16.3 75 2.8 SSE 9 11 5 6 1015.5 1015.5 0.0
14/01:30am 21.2 20.6 15.7 71 3.3 S 13 15 7 8 1015.7 1015.7 0.0
14/01:00am 21.6 21.1 15.9 70 3.4 SSE 13 15 7 8 1016.1 1016.1 0.0
14/12:30am 21.6 20.2 14.5 64 4.2 SSE 15 17 8 9 1016.5 1016.5 0.0
14/12:00am 21.8 21.1 15.4 67 3.8 SSE 13 15 7 8 1016.9 1016.9 0.0
 
Date/Time
WST
Temp
°C
App
Temp
°C
Dew
Point
°C
Rel
Hum
%
Delta-T
°C
Wind Press
QNH
hPa
Press
MSL
hPa
Rain since
9am
mm
Dir  Spd
km/h
Gust
km/h
Spd
kts
Gust
kts
13/11:30pm 22.2 20.1 14.6 62 4.5 SSE 19 20 10 11 1017.2 1017.2 0.0
13/11:00pm 22.7 20.5 14.5 60 4.8 S 19 22 10 12 1017.3 1017.3 0.0
13/10:30pm 22.5 20.3 14.4 60 4.8 SSE 19 20 10 11 1017.5 1017.5 0.0
13/10:00pm 23.4 20.0 13.8 54 5.6 SSE 24 28 13 15 1017.7 1017.7 0.0
13/09:30pm 22.9 20.2 15.5 63 4.4 SSE 24 28 13 15 1017.9 1017.9 0.0
13/09:00pm 23.3 19.3 15.1 60 4.9 SSE 30 35 16 19 1017.8 1017.8 0.0
13/08:30pm 22.0 19.6 17.4 75 2.8 S 26 28 14 15 1017.7 1017.7 0.0
13/08:00pm 21.6 19.9 18.0 80 2.2 SSW 24 26 13 14 1017.5 1017.5 0.0
13/07:30pm 22.1 19.8 17.7 76 2.7 S 26 28 14 15 1017.4 1017.4 0.0
13/07:00pm 22.1 19.4 17.5 75 2.8 S 28 30 15 16 1017.3 1017.3 0.0
13/06:30pm 22.5 19.6 17.0 71 3.4 S 28 32 15 17 1017.2 1017.2 0.0
13/06:00pm 22.8 19.7 16.6 68 3.8 SSW 28 32 15 17 1017.0 1017.0 0.0
13/05:30pm 23.2 19.9 17.0 68 3.8 SSW 30 33 16 18 1016.9 1016.9 0.0
13/05:00pm 23.2 19.7 16.5 66 4.1 SSW 30 35 16 19 1016.9 1016.9 0.0
13/04:30pm 23.7 20.4 16.0 62 4.7 SSW 28 32 15 17 1017.0 1017.0 0.0
13/04:00pm 23.8 20.5 16.1 62 4.7 SSW 28 32 15 17 1017.2 1017.2 0.0
13/03:30pm 23.8 21.1 16.6 64 4.4 SSW 26 30 14 16 1017.5 1017.5 0.0
13/03:00pm 24.3 22.7 17.5 66 4.2 SSW 22 24 12 13 1017.8 1017.8 0.0
13/02:30pm 24.3 23.5 18.0 68 4.0 SSW 19 20 10 11 1018.1 1018.1 0.0
13/02:00pm 24.0 22.9 17.3 66 4.1 SSW 19 22 10 12 1018.4 1018.4 0.0
13/01:30pm 23.6 22.4 17.1 67 4.0 SW 19 22 10 12 1018.8 1018.8 0.0
13/01:00pm 23.7 22.9 17.0 66 4.1 SW 17 20 9 11 1019.1 1019.1 0.0
13/12:30pm 24.1 22.9 16.1 61 4.9 SW 17 20 9 11 1019.4 1019.4 0.0
13/12:00pm 24.7 23.7 16.7 61 4.9 SSW 17 20 9 11 1019.7 1019.7 0.0
13/11:30am 24.5 24.3 16.7 61 4.8 SW 13 17 7 9 1020.0 1020.0 0.0
13/11:00am 25.4 25.1 14.5 51 6.5 SSW 9 13 5 7 1020.2 1020.2 0.0
13/10:30am 27.9 26.3 10.1 33 10.0 ESE 9 13 5 7 1020.4 1020.4 0.0
13/10:00am 27.7 25.0 9.0 31 10.2 ENE 13 19 7 10 1020.6 1020.6 0.0
13/09:30am 26.5 23.9 9.4 34 9.4 ENE 13 17 7 9 1020.8 1020.8 0.0
13/09:00am 24.9 21.7 11.1 42 7.7 ENE 19 26 10 14 1021.0 1021.0 0.0
13/08:30am 23.8 20.6 9.8 41 7.6 ENE 17 26 9 14 1021.0 1021.0 0.0
13/08:00am 22.0 19.4 9.5 45 6.7 E 13 19 7 10 1021.2 1021.2 0.0
13/07:30am 20.7 17.6 8.7 46 6.3 E 15 19 8 10 1021.4 1021.4 0.0
13/07:00am 19.5 16.3 8.5 49 5.7 E 15 19 8 10 1021.5 1021.5 0.0
13/06:30am 18.5 15.0 8.7 53 5.1 E 17 22 9 12 1021.5 1021.5 0.0
13/06:00am 17.8 13.8 8.4 54 4.8 E 19 24 10 13 1021.3 1021.3 0.0
13/05:30am 17.4 14.2 8.3 55 4.7 E 15 20 8 11 1021.2 1021.2 0.0
13/05:00am 17.7 14.1 8.3 54 4.8 E 17 24 9 13 1020.8 1020.8 0.0
13/04:30am 18.4 14.2 8.4 52 5.2 E 20 28 11 15 1020.5 1020.5 0.0
13/04:00am 18.6 14.6 8.3 51 5.3 E 19 26 10 14 1020.6 1020.6 0.0
13/03:30am 19.1 15.5 8.4 50 5.5 E 17 26 9 14 1020.8 1020.8 0.0
13/03:00am 19.6 16.0 8.3 48 5.8 ESE 17 22 9 12 1020.8 1020.8 0.0
13/02:30am 20.1 16.3 7.5 44 6.5 E 17 26 9 14 1020.7 1020.7 0.0
13/02:00am 20.2 17.2 7.9 45 6.3 E 13 20 7 11 1020.7 1020.7 0.0
13/01:30am 20.7 17.6 8.7 46 6.3 E 15 20 8 11 1020.4 1020.4 0.0
13/01:00am 20.6 17.9 8.9 47 6.2 E 13 19 7 10 1020.5 1020.5 0.0
13/12:30am 21.2 18.0 8.5 44 6.7 E 15 28 8 15 1020.7 1020.7 0.0
13/12:00am 21.3 18.5 8.6 44 6.7 E 13 20 7 11 1021.0 1021.0 0.0
 
Date/Time
WST
Temp
°C
App
Temp
°C
Dew
Point
°C
Rel
Hum
%
Delta-T
°C
Wind Press
QNH
hPa
Press
MSL
hPa
Rain since
9am
mm
Dir  Spd
km/h
Gust
km/h
Spd
kts
Gust
kts
12/11:30pm 21.5 18.6 9.7 47 6.3 ESE 15 19 8 10 1021.0 1021.0 0.0
12/11:00pm 22.1 18.9 8.6 42 7.1 ESE 15 20 8 11 1020.9 1020.9 0.0
12/10:30pm 22.2 18.9 9.4 44 6.9 ESE 17 20 9 11 1021.1 1021.1 0.0
12/10:00pm 22.2 19.3 9.7 45 6.7 ESE 15 19 8 10 1021.2 1021.2 0.0
12/09:30pm 22.3 20.1 10.8 48 6.3 SE 13 15 7 8 1021.4 1021.4 0.0
12/09:00pm 22.6 20.8 12.0 51 6.0 ESE 13 17 7 9 1021.5 1021.5 0.0

Other formats

Comma delimited format used in spreadsheet applications
http://www.bom.gov.au/fwo/IDW60801/IDW60801.95607.axf

JavaScript Object Notation format (JSON) in row-major order
http://www.bom.gov.au/fwo/IDW60801/IDW60801.95607.json

Data quality

Most of these data are generated automatically and are frequently updated. Quality checks on data are not normally performed. It is possible for incorrect values to appear. Refer to information at About Latest Weather Observations and please check the disclaimer before using these data.